createdAt,value
2023-04-02T00:00:14.989Z,100.00
2023-04-02T00:03:08.715Z,100.00
2023-04-02T00:05:37.219Z,100.00
2023-04-02T00:08:10.092Z,100.00
2023-04-02T00:10:39.178Z,100.00
2023-04-02T00:13:11.152Z,100.00
2023-04-02T00:15:40.449Z,100.00
2023-04-02T00:18:07.800Z,100.00
2023-04-02T00:20:38.628Z,100.00
2023-04-02T00:23:06.335Z,100.00
2023-04-02T00:25:36.678Z,100.00
2023-04-02T00:28:04.867Z,100.00
2023-04-02T00:30:32.090Z,100.00
2023-04-02T00:32:59.768Z,100.00
2023-04-02T00:35:28.472Z,100.00
2023-04-02T00:37:56.078Z,100.00
2023-04-02T00:40:28.304Z,100.00
2023-04-02T00:42:58.494Z,100.00
2023-04-02T00:45:29.977Z,100.00
2023-04-02T00:47:58.727Z,100.00
2023-04-02T00:50:35.012Z,100.00
2023-04-02T00:53:05.294Z,100.00
2023-04-02T00:55:39.099Z,100.00
2023-04-02T00:58:26.817Z,100.00
2023-04-02T01:00:59.434Z,100.00
2023-04-02T01:03:38.938Z,100.00
2023-04-02T01:06:16.485Z,100.00
2023-04-02T01:08:49.683Z,100.00
2023-04-02T01:11:42.461Z,100.00
2023-04-02T01:14:19.543Z,100.00
2023-04-02T01:17:01.322Z,100.00
2023-04-02T01:20:00.984Z,100.00
2023-04-02T01:22:30.938Z,100.00
2023-04-02T01:24:58.290Z,100.00
2023-04-02T01:27:28.914Z,100.00
2023-04-02T01:29:57.661Z,100.00
2023-04-02T01:32:26.310Z,100.00
2023-04-02T01:34:53.705Z,100.00
2023-04-02T01:37:22.952Z,100.00
2023-04-02T01:40:13.012Z,100.00
2023-04-02T01:42:53.264Z,100.00
2023-04-02T01:45:21.844Z,100.00
2023-04-02T01:47:50.490Z,100.00
2023-04-02T01:50:31.944Z,100.00
2023-04-02T01:53:01.359Z,100.00
2023-04-02T01:55:35.245Z,100.00
2023-04-02T01:58:04.988Z,100.00
2023-04-02T02:00:32.492Z,100.00
2023-04-02T02:03:00.110Z,100.00
2023-04-02T02:05:27.428Z,100.00
2023-04-02T02:07:55.912Z,100.00
2023-04-02T02:10:29.128Z,100.00
2023-04-02T02:12:59.282Z,100.00
2023-04-02T02:15:26.528Z,100.00
2023-04-02T02:18:03.238Z,100.00
2023-04-02T02:20:30.704Z,100.00
2023-04-02T02:22:58.053Z,100.00
2023-04-02T02:25:27.305Z,100.00
2023-04-02T02:28:08.084Z,100.00
2023-04-02T02:30:39.484Z,100.00
2023-04-02T02:33:16.477Z,100.00
2023-04-02T02:35:53.939Z,100.00
2023-04-02T02:38:49.727Z,100.00
2023-04-02T02:41:21.667Z,100.00
2023-04-02T02:43:53.989Z,100.00
2023-04-02T02:46:21.795Z,100.00
2023-04-02T02:48:49.288Z,100.00
2023-04-02T02:51:23.813Z,100.00
2023-04-02T02:53:53.129Z,100.00
2023-04-02T02:56:20.644Z,100.00
2023-04-02T02:58:49.098Z,100.00
2023-04-02T03:01:16.739Z,100.00
2023-04-02T03:03:45.665Z,100.00
2023-04-02T03:06:16.580Z,100.00
2023-04-02T03:08:47.050Z,100.00
2023-04-02T03:11:26.589Z,100.00
2023-04-02T03:13:55.958Z,100.00
2023-04-02T03:16:28.461Z,100.00
2023-04-02T03:19:02.307Z,100.00
2023-04-02T03:21:49.478Z,100.00
2023-04-02T03:24:20.980Z,100.00
2023-04-02T03:26:56.405Z,100.00
2023-04-02T03:29:27.769Z,100.00
2023-04-02T03:31:59.104Z,100.00
2023-04-02T03:34:52.105Z,100.00
2023-04-02T03:37:23.057Z,100.00
2023-04-02T03:39:57.153Z,100.00
2023-04-02T03:42:37.160Z,100.00
2023-04-02T03:45:17.156Z,100.00
2023-04-02T03:47:49.804Z,100.00
2023-04-02T03:50:29.272Z,100.00
2023-04-02T03:52:58.093Z,100.00
2023-04-02T03:55:28.795Z,100.00
2023-04-02T03:58:01.341Z,100.00
2023-04-02T04:00:36.517Z,100.00
2023-04-02T04:03:48.080Z,100.00
2023-04-02T04:06:27.715Z,100.00
2023-04-02T04:08:59.814Z,100.00
2023-04-02T04:11:30.918Z,100.00
2023-04-02T04:14:02.968Z,100.00
2023-04-02T04:16:41.546Z,100.00
2023-04-02T04:19:21.882Z,100.00
2023-04-02T04:21:53.978Z,100.00
2023-04-02T04:24:23.803Z,100.00
2023-04-02T04:27:04.085Z,100.00
2023-04-02T04:29:45.682Z,100.00
2023-04-02T04:32:27.867Z,100.00
2023-04-02T04:35:02.896Z,100.00
2023-04-02T04:37:38.563Z,100.00
2023-04-02T04:40:31.938Z,100.00
2023-04-02T04:43:02.196Z,100.00
2023-04-02T04:45:42.664Z,100.00
2023-04-02T04:48:40.282Z,100.00
2023-04-02T04:51:19.260Z,100.00
2023-04-02T04:53:48.680Z,100.00
2023-04-02T04:56:19.546Z,100.00
2023-04-02T04:58:54.252Z,100.00
2023-04-02T05:01:36.920Z,100.00
2023-04-02T05:04:20.957Z,100.00
2023-04-02T05:07:03.527Z,100.00
2023-04-02T05:09:51.924Z,100.00
2023-04-02T05:12:41.824Z,100.00
2023-04-02T05:15:12.111Z,100.00
2023-04-02T05:17:48.129Z,100.00
2023-04-02T05:20:33.024Z,98.83
2023-04-02T05:23:10.727Z,99.39
2023-04-02T05:25:38.801Z,99.52
2023-04-02T05:28:39.052Z,99.14
2023-04-02T05:31:12.455Z,99.19
2023-04-02T05:33:40.245Z,100.00
2023-04-02T05:36:09.644Z,98.36
2023-04-02T05:38:38.646Z,98.96
2023-04-02T05:41:28.438Z,99.82
2023-04-02T05:44:03.697Z,99.47
2023-04-02T05:46:34.287Z,98.57
2023-04-02T05:49:02.422Z,98.32
2023-04-02T05:51:50.788Z,99.68
2023-04-02T05:55:02.351Z,97.80
2023-04-02T05:57:43.807Z,96.32
2023-04-02T06:00:20.416Z,95.80
2023-04-02T06:03:27.384Z,92.30
2023-04-02T06:05:59.533Z,91.26
2023-04-02T06:08:36.735Z,89.09
2023-04-02T06:11:12.263Z,90.32
2023-04-02T06:13:39.896Z,88.74
2023-04-02T06:16:07.365Z,89.30
2023-04-02T06:18:35.808Z,88.16
2023-04-02T06:21:03.575Z,88.14
2023-04-02T06:24:09.136Z,84.65
2023-04-02T06:26:39.085Z,82.82
2023-04-02T06:29:14.891Z,82.62
2023-04-02T06:31:51.761Z,79.82
2023-04-02T06:34:23.973Z,82.06
2023-04-02T06:36:56.559Z,79.60
2023-04-02T06:39:24.623Z,77.12
2023-04-02T06:42:01.572Z,78.40
2023-04-02T06:44:35.092Z,74.57
2023-04-02T06:47:23.845Z,72.43
2023-04-02T06:50:05.817Z,63.10
2023-04-02T06:52:39.870Z,61.46
2023-04-02T06:55:18.743Z,59.67
2023-04-02T06:57:49.047Z,56.98
2023-04-02T07:00:25.853Z,58.22
2023-04-02T07:03:19.678Z,57.23
2023-04-02T07:05:47.665Z,57.22
2023-04-02T07:08:18.211Z,56.31
2023-04-02T07:10:45.461Z,54.40
2023-04-02T07:13:16.821Z,54.28
2023-04-02T07:15:51.473Z,53.04
2023-04-02T07:18:29.067Z,52.51
2023-04-02T07:20:56.743Z,51.27
2023-04-02T07:23:24.517Z,51.35
2023-04-02T07:25:53.082Z,51.66
2023-04-02T07:28:22.694Z,51.33
2023-04-02T07:30:51.266Z,50.40
2023-04-02T07:33:21.062Z,51.42
2023-04-02T07:35:49.020Z,51.39
2023-04-02T07:38:16.637Z,50.36
2023-04-02T07:40:43.932Z,51.65
2023-04-02T07:43:11.349Z,52.06
2023-04-02T07:45:39.132Z,53.34
2023-04-02T07:48:11.773Z,52.63
2023-04-02T07:50:39.092Z,52.86
2023-04-02T07:53:07.201Z,53.19
2023-04-02T07:55:35.204Z,53.21
2023-04-02T07:58:03.199Z,51.83
2023-04-02T08:00:30.542Z,55.04
2023-04-02T08:03:17.694Z,54.16
2023-04-02T08:05:58.189Z,53.30
2023-04-02T08:08:25.910Z,54.02
2023-04-02T08:10:55.517Z,55.07
2023-04-02T08:13:23.228Z,56.38
2023-04-02T08:15:50.857Z,57.11
2023-04-02T08:18:18.078Z,55.76
2023-04-02T08:20:45.310Z,56.33
2023-04-02T08:23:15.403Z,55.42
2023-04-02T08:25:43.896Z,56.41
2023-04-02T08:28:11.290Z,57.00
2023-04-02T08:30:45.067Z,57.35
2023-04-02T08:33:13.808Z,55.40
2023-04-02T08:35:41.150Z,52.57
2023-04-02T08:38:10.949Z,52.59
2023-04-02T08:40:39.612Z,53.42
2023-04-02T08:43:34.464Z,52.78
2023-04-02T08:46:07.920Z,52.29
2023-04-02T08:48:42.684Z,52.58
2023-04-02T08:51:27.345Z,50.98
2023-04-02T08:54:23.492Z,50.37
2023-04-02T08:56:54.015Z,50.22
2023-04-02T08:59:32.016Z,48.87
2023-04-02T09:02:28.157Z,48.46
2023-04-02T09:04:58.740Z,48.08
2023-04-02T09:07:26.783Z,47.56
2023-04-02T09:09:54.356Z,47.76
2023-04-02T09:12:26.701Z,48.78
2023-04-02T09:15:14.367Z,47.94
2023-04-02T09:17:53.087Z,49.44
2023-04-02T09:20:24.055Z,49.47
2023-04-02T09:22:53.158Z,50.14
2023-04-02T09:25:22.668Z,49.35
2023-04-02T09:27:54.459Z,50.19
2023-04-02T09:30:36.852Z,50.70
2023-04-02T09:33:07.983Z,50.73
2023-04-02T09:35:37.746Z,50.55
2023-04-02T09:38:32.051Z,51.17
2023-04-02T09:41:02.350Z,51.80
2023-04-02T09:43:31.858Z,52.00
2023-04-02T09:46:01.503Z,51.93
2023-04-02T09:48:32.953Z,53.19
2023-04-02T09:51:10.605Z,51.83
2023-04-02T09:53:41.876Z,53.48
2023-04-02T09:56:13.880Z,53.60
2023-04-02T09:58:41.863Z,53.57
2023-04-02T10:01:37.428Z,55.64
2023-04-02T10:04:06.635Z,57.04
2023-04-02T10:06:34.244Z,55.49
2023-04-02T10:09:27.771Z,58.32
2023-04-02T10:11:55.100Z,59.68
2023-04-02T10:14:31.656Z,56.23
2023-04-02T10:17:31.195Z,55.20
2023-04-02T10:20:20.039Z,55.39
2023-04-02T10:22:47.294Z,54.48
2023-04-02T10:25:15.499Z,54.71
2023-04-02T10:28:13.406Z,54.20
2023-04-02T10:31:01.630Z,53.24
2023-04-02T10:33:38.945Z,52.58
2023-04-02T10:36:11.390Z,50.95
2023-04-02T10:38:51.686Z,51.14
2023-04-02T10:41:46.789Z,49.63
2023-04-02T10:44:20.425Z,49.31
2023-04-02T10:46:58.057Z,46.97
2023-04-02T10:49:31.728Z,46.74
2023-04-02T10:52:00.765Z,47.49
2023-04-02T10:54:34.008Z,47.52
2023-04-02T10:57:21.035Z,46.77
2023-04-02T10:59:53.179Z,46.57
2023-04-02T11:02:26.474Z,46.83
2023-04-02T11:04:55.409Z,47.24
2023-04-02T11:07:24.928Z,47.72
2023-04-02T11:09:53.501Z,47.61
2023-04-02T11:12:27.401Z,47.35
2023-04-02T11:14:57.865Z,47.85
2023-04-02T11:17:25.224Z,48.75
2023-04-02T11:19:53.004Z,48.41
2023-04-02T11:22:21.407Z,48.04
2023-04-02T11:24:58.154Z,47.81
2023-04-02T11:27:26.434Z,47.98
2023-04-02T11:30:04.117Z,47.80
2023-04-02T11:32:43.561Z,47.91
2023-04-02T11:35:26.998Z,48.23
2023-04-02T11:37:55.883Z,47.59
2023-04-02T11:40:47.642Z,47.78
2023-04-02T11:43:33.260Z,47.38
2023-04-02T11:46:04.747Z,47.25
2023-04-02T11:48:38.356Z,47.38
2023-04-02T11:51:21.414Z,48.21
2023-04-02T11:53:49.886Z,47.67
2023-04-02T11:56:19.177Z,47.34
2023-04-02T11:58:53.231Z,47.25
2023-04-02T12:01:26.539Z,46.15
2023-04-02T12:04:11.910Z,47.02
2023-04-02T12:06:51.127Z,46.76
2023-04-02T12:09:49.809Z,48.05
2023-04-02T12:12:27.991Z,46.95
2023-04-02T12:14:56.368Z,46.92
2023-04-02T12:17:29.787Z,47.34
2023-04-02T12:20:05.106Z,47.02
2023-04-02T12:22:34.420Z,46.55
2023-04-02T12:25:24.518Z,47.74
2023-04-02T12:28:24.521Z,46.79
2023-04-02T12:30:52.093Z,47.10
2023-04-02T12:33:33.632Z,47.42
2023-04-02T12:36:01.822Z,47.40
2023-04-02T12:38:39.191Z,46.74
2023-04-02T12:41:18.147Z,46.40
2023-04-02T12:43:45.668Z,47.03
2023-04-02T12:46:13.017Z,44.95
2023-04-02T12:48:40.440Z,44.98
2023-04-02T12:51:07.788Z,44.75
2023-04-02T12:53:40.348Z,43.59
2023-04-02T12:56:11.160Z,43.55
2023-04-02T12:58:40.068Z,44.71
2023-04-02T13:01:10.334Z,46.23
2023-04-02T13:03:38.451Z,46.14
2023-04-02T13:06:26.545Z,47.74
2023-04-02T13:08:54.386Z,48.89
2023-04-02T13:11:22.725Z,49.28
2023-04-02T13:13:50.373Z,50.79
2023-04-02T13:16:17.899Z,51.90
2023-04-02T13:18:48.820Z,54.56
2023-04-02T13:21:19.604Z,60.28
2023-04-02T13:23:47.183Z,60.39
2023-04-02T13:26:18.544Z,58.02
2023-04-02T13:29:02.010Z,55.58
2023-04-02T13:31:30.448Z,55.63
2023-04-02T13:33:58.201Z,56.59
2023-04-02T13:36:25.988Z,63.21
2023-04-02T13:38:53.196Z,68.91
2023-04-02T13:41:44.451Z,76.14
2023-04-02T13:44:22.757Z,83.68
2023-04-02T13:46:50.471Z,87.21
2023-04-02T13:49:18.362Z,89.59
2023-04-02T13:51:52.942Z,90.58
2023-04-02T13:54:25.797Z,88.03
2023-04-02T13:56:53.282Z,92.33
2023-04-02T13:59:20.532Z,90.19
2023-04-02T14:01:48.071Z,93.72
2023-04-02T14:04:23.580Z,97.80
2023-04-02T14:07:06.677Z,100.00
2023-04-02T14:09:44.604Z,100.00
2023-04-02T14:12:49.431Z,100.00
2023-04-02T14:15:20.032Z,100.00
2023-04-02T14:17:49.843Z,100.00
2023-04-02T14:20:54.542Z,100.00
2023-04-02T14:23:25.792Z,100.00
2023-04-02T14:26:11.761Z,100.00
2023-04-02T14:28:51.294Z,100.00
2023-04-02T14:31:24.158Z,100.00
2023-04-02T14:34:06.317Z,100.00
2023-04-02T14:36:39.727Z,100.00
2023-04-02T14:39:49.349Z,100.00
2023-04-02T14:42:18.948Z,100.00
2023-04-02T14:44:53.061Z,100.00
2023-04-02T14:47:55.276Z,100.00
2023-04-02T14:50:33.073Z,100.00
2023-04-02T14:53:04.511Z,100.00
2023-04-02T14:55:38.106Z,100.00
2023-04-02T14:58:09.888Z,100.00
2023-04-02T15:00:40.440Z,100.00
2023-04-02T15:03:58.490Z,100.00
2023-04-02T15:06:35.539Z,100.00
2023-04-02T15:09:26.251Z,100.00
2023-04-02T15:11:56.138Z,100.00
2023-04-02T15:14:46.629Z,100.00
2023-04-02T15:17:13.921Z,100.00
2023-04-02T15:19:41.416Z,100.00
2023-04-02T15:22:39.766Z,100.00
2023-04-02T15:25:37.891Z,100.00
2023-04-02T15:28:44.025Z,100.00
2023-04-02T15:31:14.768Z,100.00
2023-04-02T15:33:48.692Z,100.00
2023-04-02T15:36:40.787Z,100.00
2023-04-02T15:39:29.491Z,100.00
2023-04-02T15:42:16.810Z,100.00
2023-04-02T15:45:07.225Z,100.00
2023-04-02T15:47:40.945Z,100.00
2023-04-02T15:50:29.565Z,100.00
2023-04-02T15:53:24.648Z,100.00
2023-04-02T15:55:57.890Z,100.00
2023-04-02T15:59:02.344Z,100.00
2023-04-02T16:01:32.814Z,100.00
2023-04-02T16:04:13.268Z,100.00
2023-04-02T16:07:09.204Z,100.00
2023-04-02T16:10:06.960Z,100.00
2023-04-02T16:12:35.054Z,100.00
2023-04-02T16:15:15.148Z,100.00
2023-04-02T16:17:46.862Z,100.00
2023-04-02T16:20:18.978Z,100.00
2023-04-02T16:22:59.369Z,100.00
2023-04-02T16:25:31.444Z,100.00
2023-04-02T16:28:21.910Z,100.00
2023-04-02T16:31:07.606Z,100.00
2023-04-02T16:33:43.900Z,100.00
2023-04-02T16:36:40.753Z,100.00
2023-04-02T16:39:17.842Z,100.00
2023-04-02T16:41:53.252Z,100.00
2023-04-02T16:44:39.378Z,100.00
2023-04-02T16:47:21.578Z,100.00
2023-04-02T16:50:03.617Z,100.00
2023-04-02T16:53:03.482Z,100.00
2023-04-02T16:55:33.394Z,100.00
2023-04-02T16:58:07.604Z,100.00
2023-04-02T17:00:54.971Z,100.00
2023-04-02T17:03:43.937Z,100.00
2023-04-02T17:06:48.782Z,100.00
2023-04-02T17:09:51.604Z,100.00
2023-04-02T17:12:33.767Z,100.00
2023-04-02T17:15:04.634Z,100.00
2023-04-02T17:17:33.477Z,100.00
2023-04-02T17:20:00.977Z,100.00
2023-04-02T17:22:28.281Z,100.00
2023-04-02T17:25:00.306Z,100.00
2023-04-02T17:27:41.515Z,100.00
2023-04-02T17:30:17.317Z,100.00
2023-04-02T17:32:54.998Z,100.00
2023-04-02T17:35:29.855Z,100.00
2023-04-02T17:38:01.194Z,100.00
2023-04-02T17:40:48.624Z,100.00
2023-04-02T17:43:35.333Z,100.00
2023-04-02T17:46:11.791Z,100.00
2023-04-02T17:48:48.024Z,100.00
2023-04-02T17:51:31.766Z,100.00
2023-04-02T17:54:30.945Z,100.00
2023-04-02T17:57:00.653Z,100.00
2023-04-02T17:59:34.205Z,100.00
2023-04-02T18:02:13.955Z,100.00
2023-04-02T18:05:17.192Z,100.00
2023-04-02T18:08:22.525Z,100.00
2023-04-02T18:11:11.665Z,100.00
2023-04-02T18:13:45.898Z,100.00
2023-04-02T18:16:44.090Z,100.00
2023-04-02T18:19:43.834Z,100.00
2023-04-02T18:22:31.660Z,100.00
2023-04-02T18:25:15.039Z,100.00
2023-04-02T18:27:56.139Z,100.00
2023-04-02T18:30:55.970Z,100.00
2023-04-02T18:33:35.948Z,100.00
2023-04-02T18:36:26.590Z,100.00
2023-04-02T18:39:09.422Z,100.00
2023-04-02T18:41:45.021Z,100.00
2023-04-02T18:44:48.871Z,100.00
2023-04-02T18:47:23.986Z,100.00
2023-04-02T18:49:59.290Z,100.00
2023-04-02T18:52:26.642Z,100.00
2023-04-02T18:55:05.734Z,100.00
2023-04-02T18:57:34.502Z,100.00
2023-04-02T19:00:16.890Z,100.00
2023-04-02T19:02:48.523Z,100.00
2023-04-02T19:05:31.219Z,100.00
2023-04-02T19:08:21.891Z,100.00
2023-04-02T19:10:54.574Z,100.00
2023-04-02T19:13:23.176Z,100.00
2023-04-02T19:16:22.371Z,100.00
2023-04-02T19:19:09.093Z,100.00
2023-04-02T19:21:53.425Z,100.00
2023-04-02T19:25:02.603Z,100.00
2023-04-02T19:27:51.449Z,100.00
2023-04-02T19:30:30.778Z,100.00
2023-04-02T19:33:01.740Z,100.00
2023-04-02T19:35:40.052Z,100.00
2023-04-02T19:38:35.398Z,100.00
2023-04-02T19:41:23.952Z,100.00
2023-04-02T19:43:51.881Z,100.00
2023-04-02T19:46:19.180Z,100.00
2023-04-02T19:49:03.570Z,100.00
2023-04-02T19:51:30.845Z,100.00
2023-04-02T19:53:58.093Z,100.00
2023-04-02T19:56:26.777Z,100.00
2023-04-02T19:58:54.585Z,100.00
2023-04-02T20:01:22.469Z,100.00
2023-04-02T20:03:49.874Z,100.00
2023-04-02T20:06:21.395Z,100.00
2023-04-02T20:08:48.600Z,100.00
2023-04-02T20:11:16.427Z,100.00
2023-04-02T20:13:44.037Z,100.00
2023-04-02T20:16:11.546Z,100.00
2023-04-02T20:18:39.550Z,100.00
2023-04-02T20:21:10.172Z,100.00
2023-04-02T20:23:38.056Z,100.00
2023-04-02T20:26:05.588Z,100.00
2023-04-02T20:28:33.198Z,100.00
2023-04-02T20:31:08.855Z,100.00
2023-04-02T20:33:36.814Z,100.00
2023-04-02T20:36:06.977Z,100.00
2023-04-02T20:38:35.779Z,100.00
2023-04-02T20:41:03.664Z,100.00
2023-04-02T20:43:34.208Z,100.00
2023-04-02T20:46:05.628Z,100.00
2023-04-02T20:48:33.580Z,100.00
2023-04-02T20:51:01.954Z,100.00
2023-04-02T20:53:31.115Z,100.00
2023-04-02T20:56:05.623Z,100.00
2023-04-02T20:58:34.263Z,100.00
2023-04-02T21:01:17.236Z,100.00
2023-04-02T21:03:48.595Z,100.00
2023-04-02T21:06:18.551Z,100.00
2023-04-02T21:08:45.975Z,100.00
2023-04-02T21:11:16.579Z,100.00
2023-04-02T21:13:45.442Z,100.00
2023-04-02T21:16:17.450Z,100.00
2023-04-02T21:18:51.236Z,100.00
2023-04-02T21:21:19.378Z,100.00
2023-04-02T21:23:47.128Z,100.00
2023-04-02T21:26:16.365Z,100.00
2023-04-02T21:28:45.312Z,100.00
2023-04-02T21:31:17.710Z,100.00
2023-04-02T21:33:47.996Z,100.00
2023-04-02T21:36:20.039Z,100.00
2023-04-02T21:38:51.410Z,100.00
2023-04-02T21:41:26.932Z,100.00
2023-04-02T21:43:54.684Z,100.00
2023-04-02T21:46:24.956Z,100.00
2023-04-02T21:48:53.158Z,100.00
2023-04-02T21:51:22.750Z,100.00
2023-04-02T21:53:51.497Z,100.00
2023-04-02T21:56:20.022Z,100.00
2023-04-02T21:58:47.765Z,100.00
2023-04-02T22:01:26.940Z,100.00
2023-04-02T22:03:56.686Z,100.00
2023-04-02T22:06:24.964Z,100.00
2023-04-02T22:08:59.586Z,100.00
2023-04-02T22:11:33.344Z,100.00
2023-04-02T22:14:03.336Z,100.00
2023-04-02T22:16:31.138Z,100.00
2023-04-02T22:19:01.517Z,100.00
2023-04-02T22:21:29.805Z,100.00
2023-04-02T22:23:59.425Z,100.00
2023-04-02T22:26:27.462Z,100.00
2023-04-02T22:28:54.864Z,100.00
2023-04-02T22:31:24.590Z,100.00
2023-04-02T22:33:52.508Z,100.00
2023-04-02T22:36:20.236Z,100.00
2023-04-02T22:38:48.313Z,100.00
2023-04-02T22:41:16.372Z,100.00
2023-04-02T22:43:44.697Z,100.00
2023-04-02T22:46:13.506Z,100.00
2023-04-02T22:48:41.181Z,100.00
2023-04-02T22:51:09.553Z,100.00
2023-04-02T22:53:37.003Z,100.00
2023-04-02T22:56:18.326Z,100.00
2023-04-02T22:58:45.737Z,100.00
2023-04-02T23:01:21.889Z,100.00
2023-04-02T23:03:49.802Z,100.00
2023-04-02T23:06:17.790Z,100.00
2023-04-02T23:08:45.334Z,100.00
2023-04-02T23:11:19.001Z,100.00
2023-04-02T23:13:49.118Z,100.00
2023-04-02T23:16:16.707Z,100.00
2023-04-02T23:18:47.948Z,100.00
2023-04-02T23:21:16.469Z,100.00
2023-04-02T23:23:43.828Z,100.00
2023-04-02T23:26:11.973Z,100.00
2023-04-02T23:28:39.657Z,100.00
2023-04-02T23:31:09.346Z,100.00
2023-04-02T23:33:37.181Z,100.00
2023-04-02T23:36:20.549Z,100.00
2023-04-02T23:38:56.868Z,100.00
2023-04-02T23:41:25.012Z,100.00
2023-04-02T23:43:52.468Z,100.00
2023-04-02T23:46:20.339Z,100.00
2023-04-02T23:48:50.614Z,100.00
2023-04-02T23:51:18.292Z,100.00
2023-04-02T23:53:45.686Z,100.00
2023-04-02T23:56:13.199Z,100.00
2023-04-02T23:58:40.669Z,100.00
